Latest Coastal Weather Observations for Orbost

IDV60701

Issued at 11:42 am EDT Thursday 30 March 2017 (issued every 10 minutes, with the page automatically refreshed every 10 minutes)

About coastal observations | Map of coastal stations | Coastal observations for VIC | Marine services | Other Formats
Station Details ID: 084145 Name: ORBOST Lat: -37.69 Lon: 148.47 Height: 62.65 m
Data from the previous 72 hours. | See also: Recent months at Orbost
Date/Time
EDT
Temp
°C
Wind Pressure Rain since
9am
mm
Weather Cloud Vis
km
Sea
Height
m
Swell
Dir  Spd
kts
Gust
kts
hPa Trend Height
m
Period
s
Dir
30/11:30am 14.8 WNW 7 10 1015.8 - 0.0 - - - - - - -
30/11:00am 13.5 NW 6 9 1016.0 - 0.0 - - - - - - -
30/10:30am 13.2 NW 6 8 1015.9 - 0.0 - - - - - - -
30/10:00am 12.5 NW 5 11 1015.7 - 0.0 - - - - - - -
30/09:30am 12.0 WNW 5 9 1015.7 - 0.0 - - - - - - -
30/09:00am 11.4 WNW 5 8 1015.3 - 1.0 - - - - - - -
30/08:30am 11.1 WNW 7 11 1015.1 - 1.0 - - - - - - -
30/08:00am 11.0 WNW 5 8 1014.5 - 1.0 - - - - - - -
30/07:30am 11.1 WNW 5 8 1014.2 - 1.0 - - - - - - -
30/07:00am 11.2 WNW 6 9 1013.9 - 1.0 - - - - - - -
30/06:30am 11.5 WNW 6 11 1013.5 - 1.0 - - - - - - -
30/06:00am 11.8 WNW 4 6 1012.9 - 1.0 - - - - - - -
30/05:30am - WNW 4 7 1012.3 - 1.0 - - - - - - -
30/05:00am 11.7 W 4 6 1011.8 - 1.0 - - - - - - -
30/04:30am 11.9 WSW 7 12 1011.8 - 0.8 - - - - - - -
30/04:00am - WSW 9 14 1011.6 - 0.4 - - - - - - -
30/03:30am 13.1 WSW 6 12 1011.3 - 0.2 - - - - - - -
30/03:00am 13.7 SSW 5 10 1011.0 - 0.2 Recent precip. - - - - - -
30/02:30am 13.9 SW 6 11 1010.9 - 0.2 - - - - - - -
30/02:00am 14.2 WSW 10 16 1010.5 - 0.0 - - - - - - -
30/01:30am 14.7 SW 11 19 1010.2 - 0.0 - - - - - - -
30/01:00am 15.8 WSW 8 13 1009.8 - 0.0 - - - - - - -
30/12:30am 16.0 WSW 12 19 1009.0 - 0.0 - - - - - - -
30/12:00am 16.5 W 11 22 1007.6 - 0.0 - - - - - - -
 
Date/Time
EDT
Temp
°C
Wind Pressure Rain since
9am
mm
Weather Cloud Vis
km
Sea
Height
m
Swell
Dir  Spd
kts
Gust
kts
hPa Trend Height
m
Period
s
Dir
29/11:30pm 19.7 N 5 6 1005.9 - 0.0 - - - - - - -
29/11:00pm 18.6 N 4 5 1006.2 - 0.0 - - - - - - -
29/10:30pm 17.3 N 3 3 1006.5 - 0.0 - - - - - - -
29/10:00pm 16.4 NNE 2 4 1006.6 - 0.0 - - - - - - -
29/09:30pm 16.6 N 2 3 1006.6 - 0.0 - - - - - - -
29/09:00pm 17.1 N 4 5 1006.4 - 0.0 - - - - - - -
29/08:30pm 17.3 CALM 0 0 1005.9 - 0.0 - - - - - - -
29/08:00pm 17.7 NNW 1 2 1005.3 - 0.0 - - - - - - -
29/07:30pm 18.8 CALM 0 0 1004.8 - 0.0 - - - - - - -
29/07:00pm 19.7 ESE 3 5 1004.6 - 0.0 - - - - - - -
29/06:30pm 20.8 SE 4 8 1004.4 - 0.0 - - - - - - -
29/06:00pm 22.4 S 4 7 1004.0 - 0.0 - - - - - - -
29/05:30pm 23.7 SSE 5 8 1003.5 - 0.0 - - - - - - -
29/05:00pm 25.2 SE 4 9 1003.4 - 0.0 - - - - - - -
29/04:30pm 25.4 SE 5 8 1003.6 - 0.0 - - - - - - -
29/04:00pm 25.0 SE 5 10 1004.2 - 0.0 - - - - - - -
29/03:30pm 25.1 SE 6 9 1004.7 - 0.0 - - - - - - -
29/03:00pm 25.9 SSE 5 8 1005.2 - 0.0 - - - - - - -
29/02:30pm 25.6 SE 3 6 1006.0 - 0.0 - - - - - - -
29/02:00pm 25.9 SSE 3 5 1006.2 - 0.0 - - - - - - -
29/01:30pm 25.4 SW 3 6 1006.7 - 0.0 - - - - - - -
29/01:00pm 24.4 SE 4 6 1007.3 - 0.0 - - - - - - -
29/12:30pm 24.4 W 2 4 1007.9 - 0.0 - - - - - - -
29/12:00pm 23.6 WSW 1 3 1008.4 - 0.0 - - - - - - -
29/11:30am - WNW 3 5 1009.0 - 0.0 - - - - - - -
29/11:00am - NNW 2 3 1009.4 - 0.0 - - - - - - -
29/10:30am - WNW 1 2 1009.8 - 0.0 - - - - - - -
29/10:00am - CALM 0 2 1010.0 - 0.0 - - - - - - -
29/09:30am - WSW 2 2 1010.2 - 0.0 - - - - - - -
29/09:00am - CALM 0 1 1010.1 - 0.0 - - - - - - -
29/08:30am - NNW 2 3 1010.2 - 0.0 - - - - - - -
29/08:00am - CALM 0 1 1009.8 - 0.0 - - - - - - -
29/07:30am - NNW 1 2 1009.6 - 0.0 - - - - - - -
29/07:00am - NW 1 1 1009.6 - 0.0 - - - - - - -
29/06:30am - CALM 0 1 1009.3 - 0.0 - - - - - - -
29/06:00am - N 3 4 1009.5 - 0.0 - - - - - - -
29/05:30am - CALM 0 2 1009.7 - 0.0 - - - - - - -
29/05:00am - CALM 0 0 1009.5 - 0.0 - - - - - - -
29/04:30am - CALM 0 0 1009.6 - 0.0 - - - - - - -
29/04:00am - CALM 0 0 1009.8 - 0.0 - - - - - - -
29/03:30am - N 1 2 1010.2 - 0.0 - - - - - - -
29/03:00am - N 2 2 1010.7 - 0.0 - - - - - - -
29/02:30am - CALM 0 0 1011.1 - 0.0 - - - - - - -
29/02:00am - CALM 0 0 1011.6 - 0.0 - - - - - - -
29/01:30am - NE 1 2 1012.0 - 0.0 - - - - - - -
29/01:00am - CALM 0 1 1012.4 - 0.0 - - - - - - -
29/12:30am 13.4 N 3 4 1012.6 - 0.0 - - - - - - -
29/12:00am 12.1 NNE 2 3 1013.0 - 0.0 - - - - - - -
 
Date/Time
EDT
Temp
°C
Wind Pressure Rain since
9am
mm
Weather Cloud Vis
km
Sea
Height
m
Swell
Dir  Spd
kts
Gust
kts
hPa Trend Height
m
Period
s
Dir
28/11:30pm 12.3 N 2 3 1013.2 - 0.0 - - - - - - -
28/11:00pm 13.3 NNW 1 2 1013.2 - 0.0 - - - - - - -
28/10:30pm 12.5 NNW 2 3 1013.4 - 0.0 - - - - - - -
28/10:00pm 13.1 CALM 0 0 1013.4 - 0.0 - - - - - - -
28/09:30pm 13.8 CALM 0 1 1013.2 - 0.0 - - - - - - -
28/09:00pm 13.6 CALM 0 2 1013.4 - 0.0 - - - - - - -
28/08:30pm 14.5 N 2 2 1013.2 - 0.0 - - - - - - -
28/08:00pm 15.1 CALM 0 0 1012.8 - 0.0 - - - - - - -
28/07:30pm 15.7 SE 2 3 1012.6 - 0.0 - - - - - - -
28/07:00pm 16.6 ESE 3 5 1012.5 - 0.0 - - - - - - -
28/06:30pm 17.8 SE 3 5 1012.2 - 0.0 - - - - - - -
28/06:00pm 18.4 SSE 5 9 1011.9 - 0.0 - - - - - - -
28/05:30pm 19.0 SSE 5 9 1011.7 - 0.0 - - - - - - -
28/05:00pm 19.2 SSE 6 10 1011.6 - 0.0 - - - - - - -
28/04:30pm 19.8 SSE 6 10 1011.6 - 0.0 - - - - - - -
28/04:00pm 19.9 SSE 6 10 1011.8 - 0.0 - - - - - - -
28/03:30pm 20.3 SE 5 8 1011.9 - 0.0 - - - - - - -
28/03:00pm 20.4 SE 6 13 1012.4 - 0.0 - - - - - - -
28/02:30pm 20.9 SE 5 8 1012.6 - 0.0 - - - - - - -
28/02:00pm 20.7 SE 3 8 1013.0 - 0.0 - - - - - - -
28/01:30pm 20.4 SE 4 8 1013.7 - 0.0 - - - - - - -
28/01:00pm 19.9 SSW 4 7 1014.1 - 0.0 - - - - - - -
28/12:30pm 19.7 WSW 3 5 1014.5 - 0.0 - - - - - - -
28/12:00pm 19.6 S 4 7 1014.7 - 0.0 - - - - - - -
28/11:30am 19.7 ENE 2 3 1014.9 - 0.0 - - - - - - -
28/11:00am 19.1 S 3 6 1014.9 - 0.0 - - - - - - -
28/10:30am 18.5 W 1 3 1014.9 - 0.0 - - - - - - -
28/10:00am 18.0 CALM 0 2 1014.7 - 0.0 - - - - - - -
28/09:30am 15.9 CALM 0 1 1014.6 - 0.0 - - - - - - -
28/09:00am 14.5 N 2 3 1014.3 - 5.4 - - - - - - -
28/08:30am 12.5 NNW 1 2 1014.1 - 5.4 - - - - - - -
28/08:00am 10.7 CALM 0 0 1013.9 - 5.4 - - - - - - -
28/07:30am 10.7 N 1 1 1013.7 - 5.4 - - - - - - -
28/07:00am 10.1 NNW 1 4 1013.4 - 5.4 - - - - - - -
28/06:30am 11.0 CALM 0 0 1013.2 - 5.4 - - - - - - -
28/06:00am 11.0 CALM 0 0 1013.2 - 5.4 - - - - - - -
28/05:30am 11.4 CALM 0 2 1013.1 - 5.4 - - - - - - -
28/05:00am 11.8 CALM 0 2 1013.1 - 5.4 - - - - - - -
28/04:30am 11.4 CALM 0 0 1013.2 - 5.4 - - - - - - -
28/04:00am 11.6 N 2 3 1013.2 - 5.4 - - - - - - -
28/03:30am 13.5 N 4 5 1013.6 - 5.4 - - - - - - -
28/03:00am 13.2 N 5 6 1013.9 - 5.4 - - - - - - -
28/02:30am 13.3 N 3 4 1014.0 - 5.4 - - - - - - -
28/02:00am 12.3 N 5 7 1014.2 - 5.4 - - - - - - -
28/01:30am 13.9 NNE 5 7 1014.4 - 5.4 - - - - - - -
28/01:00am 12.8 NW 3 5 1014.5 - 5.4 - - - - - - -
28/12:30am 14.0 N 5 6 1014.3 - 5.4 - - - - - - -
28/12:00am 14.2 NNE 5 6 1014.5 - 5.4 - - - - - - -
 
Date/Time
EDT
Temp
°C
Wind Pressure Rain since
9am
mm
Weather Cloud Vis
km
Sea
Height
m
Swell
Dir  Spd
kts
Gust
kts
hPa Trend Height
m
Period
s
Dir
27/11:30pm 14.3 N 5 6 1014.4 - 5.4 - - - - - - -
27/11:00pm 14.6 N 4 5 1014.1 - 5.4 - - - - - - -
27/10:30pm 14.9 NNW 2 2 1014.0 - 5.4 - - - - - - -
27/10:00pm 15.8 NW 3 4 1014.0 - 5.4 - - - - - - -
27/09:30pm 16.1 N 3 5 1013.6 - 5.4 - - - - - - -
27/09:00pm 15.9 NNE 1 2 1013.9 - 5.4 - - - - - - -
27/08:30pm 16.0 NNW 2 3 1013.8 - 5.4 - - - - - - -
27/08:00pm 15.7 WSW 4 5 1013.6 - 5.4 - - - - - - -
27/07:30pm 15.5 SW 5 14 1013.6 - 5.4 - - - - - - -
27/07:00pm 15.8 WSW 7 10 1013.6 - 2.8 - - - - - - -
27/06:30pm 16.6 WSW 9 14 1012.6 - 1.4 - - - - - - -
27/06:00pm 17.6 SW 14 26 1011.9 - 0.0 - - - - - - -
27/05:51pm 18.7 SW 15 26 1011.2 - 0.0 - - - - - - -
27/05:30pm 20.1 SW 13 23 1010.7 - 0.0 - - - - - - -
27/05:24pm 20.3 SW 13 22 1010.2 - 0.0 - - - - - - -
27/05:00pm 21.3 SW 23 40 1008.2 - 0.0 - - - - - - -
27/04:55pm 21.9 SW 23 40 1007.8 - 0.0 - - - - - - -
27/04:30pm 23.4 WSW 19 35 1005.8 - 0.0 - - - - - - -
27/04:26pm 27.9 WNW 16 33 1005.2 - 0.0 - - - - - - -
27/04:25pm 33.0 NW 15 33 1004.8 - 0.0 - - - - - - -
27/04:00pm 35.8 NW 15 25 1002.4 - 0.0 - - - - - - -
27/03:56pm 36.1 NW 15 25 1002.4 - 0.0 - - - - - - -
27/03:30pm 34.5 NW 6 10 1002.9 - 0.0 - - - - - - -
27/03:00pm 34.5 NNW 9 14 1003.0 - 0.0 - - - - - - -
27/02:30pm 35.7 NNW 8 14 1003.0 - 0.0 - - - - - - -
27/02:00pm 35.7 NNW 9 17 1003.5 - 0.0 - - - - - - -
27/01:30pm 35.0 N 9 13 1004.1 - 0.0 - - - - - - -
27/01:00pm 33.4 N 9 13 1004.8 - 0.0 - - - - - - -
27/12:30pm 32.3 NNW 8 14 1005.5 - 0.0 - - - - - - -
27/12:00pm 32.0 NNW 9 13 1006.1 - 0.0 - - - - - - -

Other Formats:

Comma delimited format used in spreadsheet applications
http://www.bom.gov.au/fwo/IDV60701/IDV60701.95918.axf

JavaScript Object Notation format (JSON) in row-major order
http://www.bom.gov.au/fwo/IDV60701/IDV60701.95918.json